Terminal Aerodrome Forecast
Issued by NWS Northern Indiana

Home | Current Version | Previous Version | Text Only | Print | Product List | Glossary On
Versions: 1 2 3 4 5 6 7 8 9 10 11 12 13 14 15 16 17 18 19 20
000
FTUS43 KIWX 301135
TAFFWA
TAF
KFWA 301135Z 3012/0112 08010KT P6SM BKN100
     FM301600 08012G20KT P6SM -RA OVC040
     FM301800 09012G20KT 3SM -RA BR OVC025
     FM302000 09012G20KT 3SM -RA BR OVC010
     FM302300 08012KT 2SM -RA BR OVC006
     FM010400 06008KT 2SM BR OVC003=

USA.gov is the U.S. government's official web portal to all federal, state and local government web resources and services.